Terminal Aerodrome Forecast
Issued by NWS Charleston, WV

Current Version | Previous Version | Graphics & Text | Print | Product List | Glossary On
Versions: 1 2 3 4 5 6 7 8 9 10 11 12 13 14 15 16 17 18 19 20 21 22 23 24
160
FTUS41 KRLX 230242 AAA
TAFEKN
TAF AMD
KEKN 230242Z 2303/2324 00000KT 6SM -SHRA BR SCT010 BKN020
     FM230600 00000KT 3SM BR VCSH BKN007
     FM230800 00000KT 1SM BR BKN001 OVC006
     FM231230 00000KT 3SM BR SCT001 BKN010
     FM231400 VRB03KT P6SM BKN015
     FM231700 34004KT P6SM BKN035
     FM231900 34006KT P6SM VCSH BKN040=

USA.gov is the U.S. government's official web portal to all federal, state and local government web resources and services.